North Babylon, New York
Current Conditions -  °F | °C
As of 5:53 PM on Wednesday 22 Oct 2014 (Local Time) from KFRG Reporting Station
Overcast Overcast  
Wind Chill: 54°   Ceiling: 1800
Heat Index: 54°   Visibility: 10mi
Dew Point: 49°   Wind: 22mph
Humidity: 83%   Direction: 20°NNE
Pressure: 29.78"   Gusts: 32mph
Location:  40.74°N, 73.32°W
Report Text: KFRG 222153Z 02019G28KT 10SM OVC018 12/09 A2978 RMK AO2 PK WND 02029/2059 RAE42 SLP084 P0001 T01220094
Loading
Personal Weather Stations






























Interactive Weather Map
Tropical Storm Tracking
New forecast layout! Learn more

10-Day Weather Forecast

Advertisements
Track Severe Weather on mobile